METAR Formatted Surface Weather Observation
Issued by NWS

Home | Current Version | Previous Version | Text Only | Print | Product List | Glossary On
Versions: 1 2 3 4 5 6 7 8 9 10 11 12 13 14 15 16 17
000
SAUS44 KBMX 020454
MTRHEY
METAR KHEY 020453Z AUTO 15003KT 10SM CLR 24/23 A3007 RMK AO2 SLP070
T02440228 403440194



USA.gov is the U.S. government's official web portal to all federal, state and local government web resources and services.